createdAt,value
2019-02-23T00:01:33.566Z,101883.15
2019-02-23T00:04:04.572Z,101885.81
2019-02-23T00:06:35.640Z,101888.93
2019-02-23T00:09:07.252Z,101896.22
2019-02-23T00:11:39.192Z,101890.48
2019-02-23T00:14:10.022Z,101900.56
2019-02-23T00:16:41.092Z,101897.81
2019-02-23T00:19:11.953Z,101900.12
2019-02-23T00:21:43.735Z,101909.36
2019-02-23T00:24:14.723Z,101911.18
2019-02-23T00:26:45.672Z,101901.94
2019-02-23T00:29:16.731Z,101893.94
2019-02-23T00:31:47.711Z,101916.87
2019-02-23T00:34:18.773Z,101914.14
2019-02-23T00:36:49.901Z,101914.94
2019-02-23T00:39:20.847Z,101920.61
2019-02-23T00:41:51.849Z,101921.25
2019-02-23T00:44:22.848Z,101915.10
2019-02-23T00:46:53.845Z,101925.20
2019-02-23T00:49:35.537Z,101925.22
2019-02-23T00:51:57.459Z,101923.51
2019-02-23T00:54:28.202Z,101922.30
2019-02-23T00:56:59.191Z,101922.86
2019-02-23T00:59:29.976Z,101925.32
2019-02-23T01:02:00.840Z,101922.39
2019-02-23T01:04:31.594Z,101919.36
2019-02-23T01:07:02.598Z,101934.06
2019-02-23T01:09:33.346Z,101937.54
2019-02-23T01:12:04.524Z,101943.68
2019-02-23T01:14:35.338Z,101943.88
2019-02-23T01:17:06.730Z,101953.86
2019-02-23T01:19:47.445Z,101947.92
2019-02-23T01:22:11.391Z,101955.52
2019-02-23T01:24:42.133Z,101957.59
2019-02-23T01:27:13.215Z,101953.29
2019-02-23T01:29:43.974Z,101953.38
2019-02-23T01:32:14.958Z,101956.38
2019-02-23T01:34:45.929Z,101959.83
2019-02-23T01:37:16.918Z,101959.33
2019-02-23T01:39:47.982Z,101943.26
2019-02-23T01:42:18.738Z,101942.24
2019-02-23T01:44:49.743Z,101950.34
2019-02-23T01:47:21.115Z,101944.47
2019-02-23T01:49:58.962Z,101949.17
2019-02-23T01:52:24.569Z,101948.69
2019-02-23T01:54:55.572Z,101946.89
2019-02-23T01:57:26.626Z,101949.61
2019-02-23T01:59:58.056Z,101942.93
2019-02-23T02:02:29.564Z,101945.31
2019-02-23T02:05:00.389Z,101949.13
2019-02-23T02:07:31.235Z,101963.42
2019-02-23T02:10:04.362Z,101961.64
2019-02-23T02:12:35.546Z,101956.84
2019-02-23T02:15:11.230Z,101955.50
2019-02-23T02:17:42.086Z,101965.75
2019-02-23T02:20:13.179Z,101965.64
2019-02-23T02:22:44.254Z,101964.53
2019-02-23T02:25:15.200Z,101960.62
2019-02-23T02:27:46.359Z,101955.05
2019-02-23T02:30:18.431Z,101964.30
2019-02-23T02:32:49.469Z,101964.31
2019-02-23T02:35:20.191Z,101962.58
2019-02-23T02:37:51.441Z,101967.84
2019-02-23T02:40:23.460Z,101974.12
2019-02-23T02:42:54.338Z,101974.70
2019-02-23T02:45:25.090Z,101968.56
2019-02-23T02:47:55.845Z,101975.47
2019-02-23T02:50:27.172Z,101976.70
2019-02-23T02:52:58.165Z,101986.56
2019-02-23T02:55:28.916Z,101989.04
2019-02-23T02:57:59.935Z,101986.27
2019-02-23T03:00:31.370Z,101985.50
2019-02-23T03:03:02.400Z,101964.42
2019-02-23T03:05:33.637Z,101970.96
2019-02-23T03:08:04.696Z,101972.52
2019-02-23T03:10:35.947Z,101973.14
2019-02-23T03:13:07.525Z,101975.37
2019-02-23T03:15:38.498Z,101972.56
2019-02-23T03:18:09.259Z,101971.05
2019-02-23T03:20:40.287Z,101964.84
2019-02-23T03:23:12.637Z,101971.92
2019-02-23T03:25:44.653Z,101975.61
2019-02-23T03:28:15.670Z,101972.08
2019-02-23T03:30:46.494Z,101966.97
2019-02-23T03:33:17.590Z,101972.47
2019-02-23T03:35:48.334Z,101959.86
2019-02-23T03:38:19.809Z,101969.52
2019-02-23T03:40:50.819Z,101965.36
2019-02-23T03:43:22.112Z,101960.30
2019-02-23T03:45:53.139Z,101965.41
2019-02-23T03:48:23.898Z,101962.89
2019-02-23T03:50:54.993Z,101965.55
2019-02-23T03:53:26.441Z,101958.73
2019-02-23T03:55:58.045Z,101956.94
2019-02-23T03:58:29.303Z,101956.50
2019-02-23T04:01:00.706Z,101954.06
2019-02-23T04:03:31.468Z,101957.98
2019-02-23T04:06:02.209Z,101955.45
2019-02-23T04:08:33.252Z,101967.16
2019-02-23T04:11:04.225Z,101971.92
2019-02-23T04:13:35.644Z,101968.16
2019-02-23T04:16:06.385Z,101972.05
2019-02-23T04:18:37.506Z,101970.30
2019-02-23T04:21:08.795Z,101969.44
2019-02-23T04:23:40.018Z,101976.34
2019-02-23T04:26:10.994Z,101971.75
2019-02-23T04:28:42.127Z,101965.75
2019-02-23T04:31:13.113Z,101966.05
2019-02-23T04:33:43.939Z,101957.14
2019-02-23T04:36:14.723Z,101958.38
2019-02-23T04:38:45.718Z,101959.75
2019-02-23T04:41:17.198Z,101972.99
2019-02-23T04:43:47.963Z,101970.46
2019-02-23T04:46:18.849Z,101962.83
2019-02-23T04:48:49.821Z,101961.84
2019-02-23T04:51:21.062Z,101969.56
2019-02-23T04:53:51.834Z,101962.28
2019-02-23T04:56:22.693Z,101951.64
2019-02-23T04:58:53.569Z,101950.87
2019-02-23T05:01:24.842Z,101953.52
2019-02-23T05:03:55.877Z,101948.00
2019-02-23T05:06:26.778Z,101950.17
2019-02-23T05:08:58.165Z,101947.17
2019-02-23T05:11:28.932Z,101947.72
2019-02-23T05:13:59.985Z,101957.42
2019-02-23T05:16:31.281Z,101958.78
2019-02-23T05:19:03.262Z,101961.91
2019-02-23T05:21:34.017Z,101953.45
2019-02-23T05:24:05.006Z,101958.71
2019-02-23T05:26:35.755Z,101946.86
2019-02-23T05:29:06.624Z,101951.52
2019-02-23T05:31:37.569Z,101942.16
2019-02-23T05:34:08.589Z,101937.93
2019-02-23T05:36:39.902Z,101942.23
2019-02-23T05:39:10.906Z,101935.44
2019-02-23T05:41:41.839Z,101929.07
2019-02-23T05:44:13.221Z,101928.69
2019-02-23T05:46:44.335Z,101934.34
2019-02-23T05:49:15.667Z,101929.24
2019-02-23T05:51:46.727Z,101933.56
2019-02-23T05:54:17.716Z,101937.86
2019-02-23T05:56:48.772Z,101942.78
2019-02-23T05:59:19.522Z,101951.86
2019-02-23T06:01:50.754Z,101957.01
2019-02-23T06:04:21.766Z,101960.91
2019-02-23T06:06:52.827Z,101964.74
2019-02-23T06:09:23.657Z,101971.95
2019-02-23T06:11:54.664Z,101971.98
2019-02-23T06:14:25.959Z,101971.16
2019-02-23T06:16:56.778Z,101978.92
2019-02-23T06:19:28.091Z,101972.95
2019-02-23T06:21:59.310Z,101968.28
2019-02-23T06:24:30.317Z,101972.51
2019-02-23T06:27:01.562Z,101976.35
2019-02-23T06:29:32.570Z,101969.94
2019-02-23T06:32:03.450Z,101973.79
2019-02-23T06:34:34.211Z,101973.40
2019-02-23T06:37:05.433Z,101967.03
2019-02-23T06:39:37.878Z,101972.16
2019-02-23T06:42:08.885Z,101967.00
2019-02-23T06:44:40.327Z,101962.73
2019-02-23T06:47:11.731Z,101960.14
2019-02-23T06:49:42.585Z,101964.33
2019-02-23T06:52:14.073Z,101962.63
2019-02-23T06:54:45.412Z,101960.13
2019-02-23T06:57:16.194Z,101952.45
2019-02-23T06:59:47.295Z,101955.38
2019-02-23T07:02:18.046Z,101960.53
2019-02-23T07:04:49.030Z,101957.52
2019-02-23T07:07:19.916Z,101961.33
2019-02-23T07:09:50.927Z,101956.95
2019-02-23T07:12:21.678Z,101953.53
2019-02-23T07:14:52.941Z,101963.42
2019-02-23T07:17:23.683Z,101972.87
2019-02-23T07:19:56.526Z,101991.56
2019-02-23T07:22:27.783Z,101991.02
2019-02-23T07:24:58.778Z,101998.31
2019-02-23T07:27:29.534Z,102010.32
2019-02-23T07:30:00.649Z,102005.97
2019-02-23T07:32:31.503Z,102005.78
2019-02-23T07:35:02.689Z,102002.52
2019-02-23T07:37:33.481Z,102010.25
2019-02-23T07:40:04.782Z,102006.42
2019-02-23T07:42:35.568Z,102015.70
2019-02-23T07:45:06.751Z,102022.91
2019-02-23T07:47:37.775Z,102023.16
2019-02-23T07:50:09.044Z,102025.27
2019-02-23T07:52:39.972Z,102022.05
2019-02-23T07:55:11.145Z,102017.84
2019-02-23T07:57:42.087Z,102015.50
2019-02-23T08:00:12.927Z,102015.54
2019-02-23T08:02:44.389Z,102024.07
2019-02-23T08:05:15.935Z,102029.09
2019-02-23T08:07:46.684Z,102029.39
2019-02-23T08:10:17.801Z,102027.77
2019-02-23T08:12:48.633Z,102028.55
2019-02-23T08:15:19.662Z,102028.76
2019-02-23T08:17:50.547Z,102029.14
2019-02-23T08:20:21.320Z,102026.84
2019-02-23T08:22:52.338Z,102035.33
2019-02-23T08:25:23.176Z,102030.50
2019-02-23T08:27:54.178Z,102038.22
2019-02-23T08:30:25.522Z,102041.48
2019-02-23T08:32:56.380Z,102034.30
2019-02-23T08:35:27.431Z,102037.23
2019-02-23T08:37:58.478Z,102036.45
2019-02-23T08:40:29.490Z,102033.55
2019-02-23T08:43:00.532Z,102035.22
2019-02-23T08:45:31.677Z,102029.61
2019-02-23T08:48:03.129Z,102028.86
2019-02-23T08:50:34.215Z,102031.39
2019-02-23T08:53:05.211Z,102013.86
2019-02-23T08:55:36.360Z,102008.23
2019-02-23T08:58:07.105Z,102007.30
2019-02-23T09:00:38.094Z,102007.73
2019-02-23T09:03:09.146Z,101991.16
2019-02-23T09:05:39.943Z,101983.00
2019-02-23T09:08:10.769Z,101989.94
2019-02-23T09:10:41.643Z,101985.79
2019-02-23T09:13:12.886Z,101992.03
2019-02-23T09:15:44.233Z,101987.30
2019-02-23T09:18:15.495Z,101996.06
2019-02-23T09:20:46.276Z,101988.16
2019-02-23T09:23:17.325Z,102001.73
2019-02-23T09:25:48.320Z,101998.50
2019-02-23T09:28:19.316Z,101988.27
2019-02-23T09:30:51.146Z,101991.41
2019-02-23T09:33:22.137Z,101990.20
2019-02-23T09:35:53.200Z,101989.17
2019-02-23T09:38:24.197Z,101998.74
2019-02-23T09:40:54.948Z,102003.86
2019-02-23T09:43:27.173Z,102008.86
2019-02-23T09:45:58.005Z,102000.80
2019-02-23T09:48:29.073Z,102007.19
2019-02-23T09:51:00.055Z,102005.07
2019-02-23T09:53:31.386Z,102007.52
2019-02-23T09:56:02.618Z,102001.64
2019-02-23T09:58:33.811Z,102009.64
2019-02-23T10:01:05.512Z,102010.66
2019-02-23T10:03:36.276Z,102008.34
2019-02-23T10:06:07.524Z,101999.03
2019-02-23T10:08:38.642Z,102008.02
2019-02-23T10:11:09.405Z,102000.73
2019-02-23T10:13:41.035Z,102003.36
2019-02-23T10:16:12.361Z,102001.45
2019-02-23T10:18:43.403Z,101996.05
2019-02-23T10:21:14.523Z,101993.59
2019-02-23T10:23:45.309Z,101994.50
2019-02-23T10:26:16.295Z,101998.94
2019-02-23T10:28:47.364Z,101985.63
2019-02-23T10:31:18.356Z,101985.87
2019-02-23T10:33:49.514Z,101991.20
2019-02-23T10:36:20.513Z,101983.68
2019-02-23T10:38:51.590Z,101976.17
2019-02-23T10:41:22.358Z,101971.64
2019-02-23T10:43:53.327Z,101968.21
2019-02-23T10:46:24.304Z,101970.83
2019-02-23T10:48:55.153Z,101969.45
2019-02-23T10:51:26.157Z,101957.70
2019-02-23T10:53:56.996Z,101958.13
2019-02-23T10:56:27.851Z,101944.41
2019-02-23T10:58:59.072Z,101934.66
2019-02-23T11:01:29.897Z,101935.36
2019-02-23T11:04:00.860Z,101936.05
2019-02-23T11:06:31.978Z,101936.36
2019-02-23T11:09:04.336Z,101942.14
2019-02-23T11:11:36.786Z,101939.91
2019-02-23T11:14:07.741Z,101937.25
2019-02-23T11:16:38.809Z,101955.47
2019-02-23T11:19:09.949Z,101961.53
2019-02-23T11:21:41.237Z,101956.34
2019-02-23T11:24:12.275Z,101966.36
2019-02-23T11:26:43.292Z,101963.17
2019-02-23T11:29:14.052Z,101959.45
2019-02-23T11:31:45.918Z,101953.46
2019-02-23T11:34:17.331Z,101961.15
2019-02-23T11:36:48.509Z,101963.75
2019-02-23T11:39:19.323Z,101954.50
2019-02-23T11:41:50.457Z,101956.82
2019-02-23T11:44:21.194Z,101961.42
2019-02-23T11:47:00.044Z,101948.00
2019-02-23T11:49:24.409Z,101941.86
2019-02-23T11:51:55.232Z,101947.09
2019-02-23T11:54:26.267Z,101951.41
2019-02-23T11:56:57.265Z,101941.83
2019-02-23T11:59:28.290Z,101936.22
2019-02-23T12:01:59.262Z,101939.70
2019-02-23T12:04:30.050Z,101942.70
2019-02-23T12:07:00.795Z,101930.58
2019-02-23T12:09:31.562Z,101933.74
2019-02-23T12:12:02.533Z,101936.51
2019-02-23T12:14:33.510Z,101931.37
2019-02-23T12:17:04.333Z,101928.88
2019-02-23T12:19:35.596Z,101919.41
2019-02-23T12:22:12.374Z,101919.00
2019-02-23T12:24:39.333Z,101915.08
2019-02-23T12:27:10.146Z,101913.23
2019-02-23T12:29:41.182Z,101916.11
2019-02-23T12:32:12.520Z,101915.63
2019-02-23T12:34:43.510Z,101910.80
2019-02-23T12:37:14.338Z,101914.50
2019-02-23T12:39:45.285Z,101904.89
2019-02-23T12:42:16.023Z,101900.31
2019-02-23T12:44:47.256Z,101892.09
2019-02-23T12:47:18.111Z,101887.64
2019-02-23T12:49:48.883Z,101884.17
2019-02-23T12:52:19.944Z,101877.66
2019-02-23T12:54:51.304Z,101877.90
2019-02-23T12:57:22.332Z,101878.09
2019-02-23T12:59:53.383Z,101876.53
2019-02-23T13:02:24.129Z,101868.86
2019-02-23T13:04:55.225Z,101866.38
2019-02-23T13:07:26.063Z,101852.34
2019-02-23T13:09:57.336Z,101854.67
2019-02-23T13:13:05.659Z,101853.77
2019-02-23T13:16:03.493Z,101866.38
2019-02-23T13:19:20.991Z,101873.98
2019-02-23T13:22:05.924Z,101865.47
2019-02-23T13:25:05.869Z,101861.41
2019-02-23T13:28:14.668Z,101864.26
2019-02-23T13:31:34.109Z,101860.19
2019-02-23T13:35:07.861Z,101855.67
2019-02-23T13:38:06.527Z,101844.79
2019-02-23T13:41:08.110Z,101846.86
2019-02-23T13:44:28.233Z,101839.52
2019-02-23T13:47:50.347Z,101835.38
2019-02-23T13:51:09.412Z,101832.50
2019-02-23T13:54:07.532Z,101835.16
2019-02-23T13:57:22.350Z,101819.87
2019-02-23T14:00:18.081Z,101824.10
2019-02-23T14:03:51.857Z,101825.45
2019-02-23T14:06:59.738Z,101824.39
2019-02-23T14:10:10.479Z,101816.17
2019-02-23T14:12:51.536Z,101814.30
2019-02-23T14:15:44.352Z,101814.45
2019-02-23T14:18:47.237Z,101812.39
2019-02-23T14:22:13.300Z,101810.12
2019-02-23T14:25:18.134Z,101805.08
2019-02-23T14:28:24.187Z,101807.23
2019-02-23T14:31:36.849Z,101805.63
2019-02-23T14:34:34.094Z,101803.02
2019-02-23T14:37:29.933Z,101809.14
2019-02-23T14:40:44.274Z,101806.63
2019-02-23T14:43:46.050Z,101810.54
2019-02-23T14:46:58.417Z,101814.30
2019-02-23T14:49:38.191Z,101809.59
2019-02-23T14:52:35.039Z,101818.30
2019-02-23T14:55:26.771Z,101815.73
2019-02-23T14:58:25.874Z,101814.62
2019-02-23T15:01:25.751Z,101815.02
2019-02-23T15:04:45.404Z,101815.86
2019-02-23T15:07:47.758Z,101815.96
2019-02-23T15:10:59.299Z,101807.42
2019-02-23T15:14:05.367Z,101817.69
2019-02-23T15:17:19.053Z,101826.66
2019-02-23T15:20:15.703Z,101820.77
2019-02-23T15:23:25.086Z,101819.92
2019-02-23T15:26:49.080Z,101822.95
2019-02-23T15:29:48.131Z,101823.63
2019-02-23T15:32:47.623Z,101820.09
2019-02-23T15:36:10.311Z,101816.33
2019-02-23T15:39:25.867Z,101819.66
2019-02-23T15:42:25.924Z,101817.70
2019-02-23T15:45:52.422Z,101813.22
2019-02-23T15:48:44.145Z,101813.67
2019-02-23T15:51:15.587Z,101808.92
2019-02-23T15:53:46.631Z,101806.53
2019-02-23T15:56:17.350Z,101816.13
2019-02-23T15:58:48.394Z,101827.89
2019-02-23T16:01:19.595Z,101820.70
2019-02-23T16:03:50.675Z,101828.25
2019-02-23T16:06:21.746Z,101823.03
2019-02-23T16:08:52.944Z,101825.64
2019-02-23T16:11:23.786Z,101832.95
2019-02-23T16:13:54.600Z,101827.09
2019-02-23T16:16:25.572Z,101828.59
2019-02-23T16:18:56.301Z,101826.84
2019-02-23T16:21:27.611Z,101829.78
2019-02-23T16:23:58.798Z,101827.91
2019-02-23T16:26:29.892Z,101827.30
2019-02-23T16:29:01.024Z,101829.61
2019-02-23T16:31:31.791Z,101832.42
2019-02-23T16:34:02.539Z,101834.75
2019-02-23T16:36:33.620Z,101844.03
2019-02-23T16:39:09.520Z,101841.66
2019-02-23T16:41:42.109Z,101843.44
2019-02-23T16:44:13.176Z,101851.31
2019-02-23T16:46:46.378Z,101848.20
2019-02-23T16:49:17.548Z,101850.58
2019-02-23T16:51:49.224Z,101846.86
2019-02-23T16:54:19.983Z,101851.48
2019-02-23T16:56:50.749Z,101854.03
2019-02-23T16:59:21.836Z,101848.23
2019-02-23T17:01:52.738Z,101851.78
2019-02-23T17:04:24.333Z,101849.73
2019-02-23T17:06:55.414Z,101848.88
2019-02-23T17:09:26.269Z,101852.48
2019-02-23T17:11:57.026Z,101852.45
2019-02-23T17:14:27.834Z,101850.74
2019-02-23T17:16:58.927Z,101850.42
2019-02-23T17:19:29.966Z,101852.73
2019-02-23T17:22:01.665Z,101849.67
2019-02-23T17:24:32.874Z,101858.70
2019-02-23T17:27:03.906Z,101854.09
2019-02-23T17:29:34.820Z,101852.39
2019-02-23T17:32:05.894Z,101856.84
2019-02-23T17:34:36.938Z,101862.97
2019-02-23T17:37:07.704Z,101863.78
2019-02-23T17:39:38.448Z,101861.78
2019-02-23T17:42:09.568Z,101853.24
2019-02-23T17:44:40.716Z,101866.45
2019-02-23T17:47:11.466Z,101868.86
2019-02-23T17:49:42.432Z,101868.19
2019-02-23T17:52:13.241Z,101870.54
2019-02-23T17:54:44.480Z,101873.55
2019-02-23T17:57:15.460Z,101875.33
2019-02-23T17:59:46.430Z,101878.03
2019-02-23T18:02:17.471Z,101879.92
2019-02-23T18:04:48.216Z,101882.44
2019-02-23T18:07:20.309Z,101889.86
2019-02-23T18:09:52.545Z,101877.70
2019-02-23T18:12:23.389Z,101883.95
2019-02-23T18:14:54.431Z,101883.22
2019-02-23T18:17:25.261Z,101880.11
2019-02-23T18:19:56.912Z,101879.38
2019-02-23T18:22:28.204Z,101878.52
2019-02-23T18:24:59.045Z,101878.03
2019-02-23T18:27:30.151Z,101875.88
2019-02-23T18:30:10.758Z,101880.67
2019-02-23T18:32:34.854Z,101885.30
2019-02-23T18:35:05.905Z,101882.59
2019-02-23T18:37:36.798Z,101889.92
2019-02-23T18:40:07.777Z,101888.95
2019-02-23T18:42:38.997Z,101894.85
2019-02-23T18:45:09.975Z,101896.20
2019-02-23T18:47:40.792Z,101893.02
2019-02-23T18:50:11.672Z,101897.77
2019-02-23T18:52:42.553Z,101892.50
2019-02-23T18:55:13.441Z,101893.85
2019-02-23T18:57:44.538Z,101891.95
2019-02-23T19:00:23.997Z,101890.28
2019-02-23T19:02:48.341Z,101882.69
2019-02-23T19:05:19.958Z,101892.33
2019-02-23T19:07:51.321Z,101896.19
2019-02-23T19:10:22.696Z,101891.08
2019-02-23T19:12:54.173Z,101889.56
2019-02-23T19:15:25.224Z,101890.47
2019-02-23T19:17:56.239Z,101880.42
2019-02-23T19:20:27.139Z,101877.95
2019-02-23T19:22:58.297Z,101872.94
2019-02-23T19:25:30.115Z,101866.59
2019-02-23T19:28:01.218Z,101860.23
2019-02-23T19:30:32.422Z,101861.46
2019-02-23T19:33:03.767Z,101856.67
2019-02-23T19:35:34.832Z,101856.48
2019-02-23T19:38:05.606Z,101867.09
2019-02-23T19:40:36.965Z,101858.58
2019-02-23T19:43:07.957Z,101853.78
2019-02-23T19:45:39.076Z,101849.45
2019-02-23T19:48:10.144Z,101851.97
2019-02-23T19:50:44.352Z,101850.91
2019-02-23T19:53:15.827Z,101848.92
2019-02-23T19:55:46.917Z,101847.13
2019-02-23T19:58:18.367Z,101848.80
2019-02-23T20:00:49.109Z,101851.46
2019-02-23T20:03:21.624Z,101855.97
2019-02-23T20:05:52.975Z,101864.11
2019-02-23T20:08:24.639Z,101869.91
2019-02-23T20:10:55.837Z,101864.98
2019-02-23T20:13:27.811Z,101861.60
2019-02-23T20:15:58.544Z,101868.34
2019-02-23T20:18:29.352Z,101866.18
2019-02-23T20:21:00.155Z,101867.41
2019-02-23T20:23:31.233Z,101868.20
2019-02-23T20:26:02.196Z,101873.11
2019-02-23T20:28:33.179Z,101884.10
2019-02-23T20:31:03.907Z,101880.56
2019-02-23T20:33:34.659Z,101880.98
2019-02-23T20:36:05.871Z,101877.73
2019-02-23T20:38:36.916Z,101872.68
2019-02-23T20:41:08.119Z,101880.41
2019-02-23T20:43:39.440Z,101876.80
2019-02-23T20:46:11.261Z,101873.64
2019-02-23T20:48:42.283Z,101868.80
2019-02-23T20:51:13.021Z,101873.66
2019-02-23T20:53:44.437Z,101875.58
2019-02-23T20:56:15.168Z,101868.09
2019-02-23T20:58:46.140Z,101866.67
2019-02-23T21:01:17.107Z,101868.77
2019-02-23T21:03:47.865Z,101861.52
2019-02-23T21:06:18.879Z,101861.86
2019-02-23T21:08:49.641Z,101866.59
2019-02-23T21:11:20.364Z,101873.64
2019-02-23T21:13:51.748Z,101875.30
2019-02-23T21:16:22.730Z,101877.00
2019-02-23T21:18:53.513Z,101876.83
2019-02-23T21:21:24.484Z,101879.62
2019-02-23T21:23:55.235Z,101871.26
2019-02-23T21:26:26.318Z,101875.13
2019-02-23T21:28:57.528Z,101870.54
2019-02-23T21:31:28.270Z,101872.73
2019-02-23T21:33:59.372Z,101875.55
2019-02-23T21:36:30.109Z,101880.11
2019-02-23T21:39:01.528Z,101872.80
2019-02-23T21:41:34.221Z,101873.92
2019-02-23T21:44:05.448Z,101881.20
2019-02-23T21:46:36.127Z,101870.16
2019-02-23T21:49:07.261Z,101876.50
2019-02-23T21:51:37.995Z,101879.41
2019-02-23T21:54:10.663Z,101880.74
2019-02-23T21:56:41.844Z,101881.59
2019-02-23T21:59:12.584Z,101885.08
2019-02-23T22:01:43.664Z,101880.64
2019-02-23T22:04:14.487Z,101887.56
2019-02-23T22:06:45.868Z,101882.55
2019-02-23T22:09:16.826Z,101883.15
2019-02-23T22:11:47.554Z,101882.38
2019-02-23T22:14:18.526Z,101886.41
2019-02-23T22:16:49.518Z,101877.96
2019-02-23T22:19:20.738Z,101882.81
2019-02-23T22:21:51.474Z,101884.55
2019-02-23T22:24:22.552Z,101885.97
2019-02-23T22:26:53.282Z,101883.89
2019-02-23T22:29:24.274Z,101887.67
2019-02-23T22:31:55.244Z,101883.86
2019-02-23T22:34:25.989Z,101886.91
2019-02-23T22:36:57.289Z,101885.66
2019-02-23T22:39:28.035Z,101881.75
2019-02-23T22:41:58.950Z,101885.94
2019-02-23T22:44:30.047Z,101887.73
2019-02-23T22:47:01.099Z,101882.66
2019-02-23T22:49:31.860Z,101881.89
2019-02-23T22:52:02.613Z,101886.25
2019-02-23T22:54:33.386Z,101888.84
2019-02-23T22:57:04.473Z,101894.88
2019-02-23T22:59:35.270Z,101904.75
2019-02-23T23:02:06.017Z,101902.63
2019-02-23T23:04:37.408Z,101903.97
2019-02-23T23:07:08.815Z,101907.79
2019-02-23T23:09:39.853Z,101913.77
2019-02-23T23:12:10.904Z,101909.56
2019-02-23T23:14:41.944Z,101901.06
2019-02-23T23:17:13.261Z,101897.22
2019-02-23T23:19:44.003Z,101903.17
2019-02-23T23:22:15.229Z,101896.77
2019-02-23T23:24:45.967Z,101894.19
2019-02-23T23:27:17.111Z,101897.20
2019-02-23T23:29:48.321Z,101892.04
2019-02-23T23:32:20.433Z,101892.03
2019-02-23T23:34:51.180Z,101889.89
2019-02-23T23:37:21.938Z,101887.72
2019-02-23T23:39:53.778Z,101886.91
2019-02-23T23:42:24.606Z,101892.42
2019-02-23T23:44:55.873Z,101894.18
2019-02-23T23:47:26.624Z,101883.47
2019-02-23T23:49:57.461Z,101882.18
2019-02-23T23:52:28.257Z,101887.31
2019-02-23T23:54:59.749Z,101889.00
2019-02-23T23:57:30.978Z,101894.06
